Address 0x855f53b97ebf665a3262b9b3715179823219c8da

Overview

Balance:
5.756154109712066784 MATIC
My Name Tag:
Not Available

Txn Hash Method
Block
From
To
Value [Txn Fee]
0xaa78414ff7b6c483ad6063533e65b1076f44522c7373089ff3270324cf05a1cf0x6340a5b8276474112022-08-16 14:29:4413 hrs 27 mins ago0x855f53b97ebf665a3262b9b3715179823219c8daOUT 0x72d8d9e9ae1cc2070ffab9c6949c0a1ea329c50e0 MATIC0.010319680002 40.000000008
0x19e6bba41c844973fb3fe0676decc7afdb6d1b06bd28f679e5180b0222c58f4d0x6340a5b8276473762022-08-16 14:23:5413 hrs 33 mins ago0x855f53b97ebf665a3262b9b3715179823219c8daOUT 0x72d8d9e9ae1cc2070ffab9c6949c0a1ea329c50e0 MATIC0.010442880001 42.000000008
0x3a96d9e7780651ebcfd560d9877d082ca32b7168107bb00150b89973135d75410x6340a5b8276473512022-08-16 14:20:2313 hrs 36 mins ago0x855f53b97ebf665a3262b9b3715179823219c8daOUT 0x72d8d9e9ae1cc2070ffab9c6949c0a1ea329c50e0 MATIC0.009959240001 40.000000008
0xa5c14b8934e5efd16dc22b923b1b4ffae108659063954fa6caaabbb6aae949a20x6340a5b8276472892022-08-16 14:15:1213 hrs 42 mins ago0x855f53b97ebf665a3262b9b3715179823219c8daOUT 0x72d8d9e9ae1cc2070ffab9c6949c0a1ea329c50e0 MATIC0.010408880001 40.000000007
0x6f039056380b9ce47ea1d61f771d4a0041b3f6403897e3528ff3e9dbfc30a7bc0x6340a5b8276472672022-08-16 14:13:2213 hrs 44 mins ago0x855f53b97ebf665a3262b9b3715179823219c8daOUT 0x72d8d9e9ae1cc2070ffab9c6949c0a1ea329c50e0 MATIC0.009952200001 40.000000007
0x847e90ff88a631df3d8fda888001454eff8ece9662d62f12ebddef5babaf59290x6340a5b8276454452022-08-16 11:14:2416 hrs 42 mins ago0x855f53b97ebf665a3262b9b3715179823219c8daOUT 0x72d8d9e9ae1cc2070ffab9c6949c0a1ea329c50e0 MATIC0.010376720003 40.000000013
0x146127d2bea2a0722921476d70f342607d68a5d3863f2d7fdf17e9ec9a6fd9450x6340a5b8276133712022-08-14 6:49:092 days 21 hrs ago0x855f53b97ebf665a3262b9b3715179823219c8daOUT 0x72d8d9e9ae1cc2070ffab9c6949c0a1ea329c50e0 MATIC0.010296760001 40.000000007
0x2b9e08cc764e10158a7593fb6c092fa5554f9f8d7de5468b2fbe5fbd24698b120x6340a5b8276024732022-08-13 10:55:283 days 17 hrs ago0x855f53b97ebf665a3262b9b3715179823219c8daOUT 0x72d8d9e9ae1cc2070ffab9c6949c0a1ea329c50e0 MATIC0.009957280001 40.000000008
0x5cfa3b1f073dfdd1830ec015e73ae33acef85bda8c4a40800c60b52aea1c5da30x6340a5b8275870072022-08-12 10:10:364 days 17 hrs ago0x855f53b97ebf665a3262b9b3715179823219c8daOUT 0x72d8d9e9ae1cc2070ffab9c6949c0a1ea329c50e0 MATIC0.011613060002 45.000000008
0x23fc9bec46b159af4b327ac352d495869208cd59ab35ed861def4837de0a60fd0x6340a5b8275869492022-08-12 10:05:464 days 17 hrs ago0x855f53b97ebf665a3262b9b3715179823219c8daOUT 0x72d8d9e9ae1cc2070ffab9c6949c0a1ea329c50e0 MATIC0.010359120002 40.000000008
0x2d2afea4906031da0614ca8d79ae4cdcc6130df93a49dd7c56d9d85e1ab8e71e0x6340a5b8275869182022-08-12 10:03:104 days 17 hrs ago0x855f53b97ebf665a3262b9b3715179823219c8daOUT 0x72d8d9e9ae1cc2070ffab9c6949c0a1ea329c50e0 MATIC0.009948840001 40.000000008
0x000ee28118d4f30a9be1b77b53df20f13548b1317041a33e3529768069ba2cd60x6340a5b8275821662022-08-12 2:11:165 days 1 hr ago0x855f53b97ebf665a3262b9b3715179823219c8daOUT 0x72d8d9e9ae1cc2070ffab9c6949c0a1ea329c50e0 MATIC0.010399920001 40.000000007
0x55ea6374d21a3d6eff68117c59444ee555cc08da07962b5f95a2e897228532c10x6340a5b8275821482022-08-12 2:09:465 days 1 hr ago0x855f53b97ebf665a3262b9b3715179823219c8daOUT 0x72d8d9e9ae1cc2070ffab9c6949c0a1ea329c50e0 MATIC0.010357040001 40.000000007
0x296c4ee4674c4a3c9af1b0beb759589836898b915c4bbd5be0c2e0f8ab2a5de30x6340a5b8275821402022-08-12 2:09:055 days 1 hr ago0x855f53b97ebf665a3262b9b3715179823219c8daOUT 0x72d8d9e9ae1cc2070ffab9c6949c0a1ea329c50e0 MATIC0.009964560001 40.000000007
0xa6475f7ebc99737e58b18ea6f5bd41503319fed9aeceee4f5729b1e101298d6b0x6340a5b8275821052022-08-12 2:06:105 days 1 hr ago0x855f53b97ebf665a3262b9b3715179823219c8daOUT 0x72d8d9e9ae1cc2070ffab9c6949c0a1ea329c50e0 MATIC0.009961000001 40.000000007
0x5d9b4fcb970717f918f37a57bc8d4eae52f81be586842d47dcbd43af52fa1ac90x6340a5b8275820922022-08-12 2:05:055 days 1 hr ago0x855f53b97ebf665a3262b9b3715179823219c8daOUT 0x72d8d9e9ae1cc2070ffab9c6949c0a1ea329c50e0 MATIC0.010335920001 40.000000007
0x4de5f2965b3a519998ff9cd51bf29cb5334844b6af053957aba023f694ed935f0x6340a5b8275428592022-08-09 11:57:277 days 15 hrs ago0x855f53b97ebf665a3262b9b3715179823219c8daOUT 0x72d8d9e9ae1cc2070ffab9c6949c0a1ea329c50e0 MATIC0.010397760003 40.000000014
0x9c3bdb6a874765ea2b0ae96d0f1b59d3ea8c3ce54da6d4f9999e553bb772f5750xb1726a3a274570862022-08-03 12:32:1513 days 15 hrs ago0x855f53b97ebf665a3262b9b3715179823219c8daOUT 0x3e3ce3296b0c972801d55b4c9b4dbdf522d9967f0 MATIC0.002429440
0x740c1287e1a87a6564a347913d0e6d78a3a868d8e4c31fc993c138a4525ab0bf0xb1726a3a274417782022-08-02 11:05:1114 days 16 hrs ago0x855f53b97ebf665a3262b9b3715179823219c8daOUT 0x3e3ce3296b0c972801d55b4c9b4dbdf522d9967f0 MATIC0.002429440
0x9efee8e503049f179cc674640ef22f3728747e17bfa29bd34487b3372bd741c10xb1726a3a274417692022-08-02 11:03:4114 days 16 hrs ago0x855f53b97ebf665a3262b9b3715179823219c8daOUT 0x3e3ce3296b0c972801d55b4c9b4dbdf522d9967f0 MATIC0.002429440
0xf1f981d1842d704179eac962610be4a2880e4c7e824bdbd42c9f61db04e4b5090xb1726a3a274411072022-08-02 9:59:3114 days 17 hrs ago0x855f53b97ebf665a3262b9b3715179823219c8daOUT 0x3e3ce3296b0c972801d55b4c9b4dbdf522d9967f0 MATIC0.0752330840
0xb5be95903d5638665d3e7f57f892f733398b854b78648d3aa1836a5c5b6414000xb1726a3a274410702022-08-02 9:55:0014 days 18 hrs ago0x855f53b97ebf665a3262b9b3715179823219c8daOUT 0x3e3ce3296b0c972801d55b4c9b4dbdf522d9967f0 MATIC0.002429440
0xadc093eb6b921b9769a53edab26f100260c0489bd44e0cd76ed6852050e5f5d20xb1726a3a274409612022-08-02 9:41:5914 days 18 hrs ago0x855f53b97ebf665a3262b9b3715179823219c8daOUT 0x3e3ce3296b0c972801d55b4c9b4dbdf522d9967f0 MATIC0.00347404257.2
0x8c0c678eb2901746d9830239fda83401f7a13875c876a9ceaa6ed6d2caf9c8990xb1726a3a274406192022-08-02 9:08:0314 days 18 hrs ago0x855f53b97ebf665a3262b9b3715179823219c8daOUT 0x3e3ce3296b0c972801d55b4c9b4dbdf522d9967f0 MATIC0.0026723444
0x7201ec3c7e6dcd961a65377e331e7ed9b4723c587e8c46721d530edfea49768a0xb1726a3a274405722022-08-02 9:04:0714 days 18 hrs ago0x855f53b97ebf665a3262b9b3715179823219c8daOUT 0x3e3ce3296b0c972801d55b4c9b4dbdf522d9967f0 MATIC0.002429440
[ Download CSV Export 
Latest 4 internal transactions
Parent Txn Hash Block From To Value
0x9282633ceee604e466fe0c49bad44b9df9623814ba8c2b5c02d15b196973ee31262927342022-05-12 5:57:5196 days 21 hrs ago 0x7f092e65c688a509737fcd8d0998dd12208f52970x855f53b97ebf665a3262b9b3715179823219c8da0.2 MATIC
0x745dd5c2329c2856b768fc518e726447ab08f3f1be3e4f8b9e8edf899ab21ae0261859702022-05-03 14:03:05105 days 13 hrs ago 0x7f092e65c688a509737fcd8d0998dd12208f52970x855f53b97ebf665a3262b9b3715179823219c8da0.2 MATIC
0x555ad2543cd489e61f53d66d98e0b18f9c424f858aaef4c7e1d2173bc3669760261859462022-05-03 14:01:05105 days 13 hrs ago 0x7f092e65c688a509737fcd8d0998dd12208f52970x855f53b97ebf665a3262b9b3715179823219c8da0.2 MATIC
0x94f44c778d990b6bca09459764370185d8ee234944c99dd75c4b15041f55adc8261338752022-04-29 16:03:06109 days 11 hrs ago 0x7f092e65c688a509737fcd8d0998dd12208f52970x855f53b97ebf665a3262b9b3715179823219c8da0.2 MATIC
[ Download CSV Export 
Loading

Contract Name:
0 MATIC

Compiler Version
0

Optimization Enabled:
0 MATIC

Other Settings:
-NA-
Block Transaction Gas Used Reward
Age Block Fee Address BC Fee Address Voting Power Jailed Incoming
Block Uncle Number Difficulty Gas Used Reward
Loading